Portada
METAR-TAF:

METAR-TAF

Aeroports :

Araçatuba, São Paulo, Brasil

latitud: 21-08-39S, longitud: 050-25-35W, altitud: 415 m

Observació

L'informe es va fer fa 13 hores i 6 minuts, a les 08:00 UTC
Vent 7 kt del Est/Sud-Est
Temperatura 16°C
Humitat 48%
Pressió 1022 hPa
Visibilitat 10 km o més
sense núvols per sota de 1500 mi sense presència de cumulonimbus.

METAR: SBAU 070800Z 12007KT CAVOK 16/05 Q1022

Hora: 18:06 (21:06 UTC)


TAF: manca

Observacions i pronòstics meteorològics de més de 4000 aeroports (METAR i TAF).

Les estacions disponibles són els punts grocs i vermells al mapa.

Posi el ratolí al punt desitjat per veure el nom de l'estació.

Feu clic per veure les observacions i els pronòstics meteorològics.

Per canviar el mapa: feu clic els botons verds amb una creu de color negre per apropar; al botó verd amb un guió per allunyar la imatge; o en les fletxes verdes per a mapes adjacents.


METAR-TAF: